createdAt,value
2018-11-04T00:00:56.867Z,12.80
2018-11-04T00:03:26.447Z,12.80
2018-11-04T00:05:55.823Z,12.80
2018-11-04T00:08:25.128Z,12.80
2018-11-04T00:10:54.391Z,12.80
2018-11-04T00:13:24.116Z,12.90
2018-11-04T00:15:53.227Z,12.90
2018-11-04T00:18:22.432Z,12.90
2018-11-04T00:20:51.653Z,12.90
2018-11-04T00:23:20.960Z,12.90
2018-11-04T00:25:50.164Z,12.90
2018-11-04T00:28:19.745Z,12.90
2018-11-04T00:30:48.951Z,12.90
2018-11-04T00:33:18.150Z,12.90
2018-11-04T00:35:47.383Z,12.90
2018-11-04T00:38:16.707Z,12.90
2018-11-04T00:40:45.910Z,12.90
2018-11-04T00:43:15.241Z,12.90
2018-11-04T00:45:45.487Z,12.90
2018-11-04T00:48:14.704Z,12.90
2018-11-04T00:50:44.370Z,12.90
2018-11-04T00:53:13.645Z,12.90
2018-11-04T00:55:48.169Z,12.90
2018-11-04T00:58:17.425Z,12.90
2018-11-04T01:00:46.677Z,12.90
2018-11-04T01:03:15.937Z,12.90
2018-11-04T01:05:45.205Z,12.90
2018-11-04T01:08:14.418Z,12.90
2018-11-04T01:10:43.996Z,12.90
2018-11-04T01:13:13.276Z,12.90
2018-11-04T01:15:43.037Z,12.90
2018-11-04T01:18:12.327Z,12.90
2018-11-04T01:20:41.585Z,12.90
2018-11-04T01:23:10.839Z,12.90
2018-11-04T01:25:40.226Z,12.90
2018-11-04T01:28:09.513Z,12.90
2018-11-04T01:30:38.781Z,12.90
2018-11-04T01:33:08.112Z,12.90
2018-11-04T01:35:37.372Z,12.90
2018-11-04T01:38:06.632Z,12.90
2018-11-04T01:40:35.919Z,12.90
2018-11-04T01:43:05.565Z,12.90
2018-11-04T01:45:34.804Z,12.90
2018-11-04T01:48:04.125Z,12.90
2018-11-04T01:50:33.401Z,12.90
2018-11-04T01:53:02.646Z,12.90
2018-11-04T01:55:31.960Z,12.90
2018-11-04T01:58:01.280Z,12.90
2018-11-04T02:00:30.528Z,12.90
2018-11-04T02:02:59.882Z,12.90
2018-11-04T02:05:29.128Z,12.90
2018-11-04T02:07:58.387Z,12.90
2018-11-04T02:10:27.652Z,12.90
2018-11-04T02:12:56.932Z,12.90
2018-11-04T02:15:26.317Z,12.90
2018-11-04T02:17:56.178Z,12.90
2018-11-04T02:20:25.482Z,12.90
2018-11-04T02:22:54.733Z,12.90
2018-11-04T02:25:24.029Z,12.90
2018-11-04T02:27:53.364Z,12.80
2018-11-04T02:30:22.838Z,12.90
2018-11-04T02:32:52.106Z,12.90
2018-11-04T02:35:21.338Z,12.90
2018-11-04T02:37:50.673Z,12.90
2018-11-04T02:40:20.377Z,12.90
2018-11-04T02:42:49.689Z,12.90
2018-11-04T02:45:19.000Z,12.90
2018-11-04T02:47:48.231Z,12.90
2018-11-04T02:50:17.521Z,13.00
2018-11-04T02:52:46.816Z,12.90
2018-11-04T02:55:16.078Z,12.90
2018-11-04T02:57:45.305Z,12.90
2018-11-04T03:00:15.196Z,12.90
2018-11-04T03:02:44.985Z,12.90
2018-11-04T03:05:14.278Z,12.90
2018-11-04T03:07:43.815Z,12.90
2018-11-04T03:10:14.497Z,12.80
2018-11-04T03:12:43.742Z,12.80
2018-11-04T03:15:13.017Z,12.80
2018-11-04T03:17:42.290Z,12.90
2018-11-04T03:20:12.066Z,12.90
2018-11-04T03:22:41.409Z,12.90
2018-11-04T03:25:11.169Z,12.90
2018-11-04T03:27:40.415Z,12.90
2018-11-04T03:30:09.958Z,12.90
2018-11-04T03:32:39.309Z,12.90
2018-11-04T03:35:08.571Z,12.90
2018-11-04T03:37:37.869Z,12.90
2018-11-04T03:40:09.183Z,12.90
2018-11-04T03:42:38.410Z,13.00
2018-11-04T03:45:08.424Z,12.90
2018-11-04T03:47:37.951Z,13.00
2018-11-04T03:50:09.223Z,12.90
2018-11-04T03:52:38.703Z,12.90
2018-11-04T03:55:08.316Z,12.90
2018-11-04T03:57:37.591Z,12.90
2018-11-04T04:00:10.093Z,12.90
2018-11-04T04:02:39.518Z,12.90
2018-11-04T04:05:09.721Z,12.90
2018-11-04T04:07:39.424Z,12.90
2018-11-04T04:10:09.628Z,12.90
2018-11-04T04:12:38.895Z,12.90
2018-11-04T04:15:09.315Z,12.90
2018-11-04T04:17:38.651Z,13.00
2018-11-04T04:20:08.265Z,13.00
2018-11-04T04:22:38.131Z,13.00
2018-11-04T04:25:07.709Z,13.00
2018-11-04T04:27:36.981Z,12.90
2018-11-04T04:30:08.359Z,12.90
2018-11-04T04:32:37.633Z,12.90
2018-11-04T04:35:07.477Z,12.90
2018-11-04T04:37:36.773Z,12.90
2018-11-04T04:40:06.176Z,12.90
2018-11-04T04:42:35.417Z,12.90
2018-11-04T04:45:04.920Z,12.90
2018-11-04T04:47:34.361Z,12.90
2018-11-04T04:50:03.862Z,12.90
2018-11-04T04:52:33.365Z,12.90
2018-11-04T04:55:02.774Z,12.90
2018-11-04T04:57:32.017Z,12.90
2018-11-04T05:00:01.310Z,12.90
2018-11-04T05:02:30.530Z,12.90
2018-11-04T05:04:59.770Z,12.90
2018-11-04T05:07:29.071Z,12.90
2018-11-04T05:09:58.334Z,12.90
2018-11-04T05:12:27.615Z,12.90
2018-11-04T05:14:57.301Z,12.90
2018-11-04T05:17:26.590Z,12.90
2018-11-04T05:19:55.852Z,12.80
2018-11-04T05:22:25.113Z,12.80
2018-11-04T05:24:54.699Z,12.80
2018-11-04T05:27:23.954Z,12.90
2018-11-04T05:29:53.228Z,12.90
2018-11-04T05:32:22.465Z,12.90
2018-11-04T05:34:51.709Z,12.90
2018-11-04T05:37:21.041Z,12.90
2018-11-04T05:39:50.269Z,12.90
2018-11-04T05:42:19.521Z,12.90
2018-11-04T05:44:48.821Z,12.90
2018-11-04T05:47:18.064Z,12.90
2018-11-04T05:49:47.325Z,12.90
2018-11-04T05:52:16.621Z,12.90
2018-11-04T05:54:45.851Z,12.80
2018-11-04T05:57:15.100Z,12.90
2018-11-04T05:59:44.831Z,12.80
2018-11-04T06:02:14.082Z,12.90
2018-11-04T06:04:43.567Z,12.90
2018-11-04T06:07:12.875Z,12.80
2018-11-04T06:09:42.109Z,12.80
2018-11-04T06:12:11.373Z,12.80
2018-11-04T06:14:40.656Z,12.80
2018-11-04T06:17:09.906Z,12.70
2018-11-04T06:19:39.230Z,12.80
2018-11-04T06:22:08.745Z,12.70
2018-11-04T06:24:38.005Z,12.70
2018-11-04T06:27:07.773Z,12.70
2018-11-04T06:29:37.025Z,12.70
2018-11-04T06:32:06.305Z,12.70
2018-11-04T06:34:35.598Z,12.70
2018-11-04T06:37:05.276Z,12.70
2018-11-04T06:39:34.960Z,12.80
2018-11-04T06:42:04.245Z,12.80
2018-11-04T06:44:33.669Z,12.80
2018-11-04T06:47:02.995Z,12.80
2018-11-04T06:49:32.212Z,12.80
2018-11-04T06:52:01.490Z,12.70
2018-11-04T06:54:30.729Z,12.70
2018-11-04T06:57:00.257Z,12.80
2018-11-04T06:59:29.637Z,12.80
2018-11-04T07:01:58.904Z,12.80
2018-11-04T07:04:29.270Z,12.80
2018-11-04T07:06:59.336Z,12.80
2018-11-04T07:09:28.618Z,12.90
2018-11-04T07:11:57.881Z,12.80
2018-11-04T07:14:27.197Z,12.80
2018-11-04T07:16:56.441Z,12.80
2018-11-04T07:19:25.712Z,12.90
2018-11-04T07:21:55.153Z,12.90
2018-11-04T07:24:24.448Z,13.00
2018-11-04T07:26:53.697Z,13.00
2018-11-04T07:29:23.877Z,13.00
2018-11-04T07:31:53.180Z,13.00
2018-11-04T07:34:22.406Z,13.10
2018-11-04T07:36:51.950Z,13.00
2018-11-04T07:39:21.185Z,13.00
2018-11-04T07:41:50.433Z,13.00
2018-11-04T07:44:19.726Z,13.00
2018-11-04T07:46:48.996Z,13.00
2018-11-04T07:49:18.328Z,13.00
2018-11-04T07:51:47.865Z,13.00
2018-11-04T07:54:17.093Z,13.00
2018-11-04T07:56:46.342Z,13.10
2018-11-04T07:59:15.644Z,13.10
2018-11-04T08:01:44.894Z,13.10
2018-11-04T08:04:14.213Z,13.10
2018-11-04T08:06:43.418Z,13.20
2018-11-04T08:09:12.770Z,13.20
2018-11-04T08:11:41.997Z,13.20
2018-11-04T08:14:11.576Z,13.20
2018-11-04T08:16:40.824Z,13.30
2018-11-04T08:19:10.062Z,13.30
2018-11-04T08:21:39.705Z,13.20
2018-11-04T08:24:08.945Z,13.30
2018-11-04T08:26:38.229Z,13.30
2018-11-04T08:29:07.820Z,13.30
2018-11-04T08:31:37.173Z,13.30
2018-11-04T08:34:06.493Z,13.30
2018-11-04T08:36:35.982Z,13.30
2018-11-04T08:39:07.106Z,13.30
2018-11-04T08:41:36.349Z,13.40
2018-11-04T08:44:05.678Z,13.40
2018-11-04T08:46:34.934Z,13.40
2018-11-04T08:49:04.633Z,13.40
2018-11-04T08:51:34.105Z,13.40
2018-11-04T08:54:03.477Z,13.40
2018-11-04T08:56:32.718Z,13.50
2018-11-04T08:59:02.072Z,13.50
2018-11-04T09:01:31.313Z,13.50
2018-11-04T09:04:00.565Z,13.50
2018-11-04T09:06:30.107Z,13.50
2018-11-04T09:08:59.327Z,13.50
2018-11-04T09:11:28.592Z,13.50
2018-11-04T09:13:58.069Z,13.50
2018-11-04T09:16:27.434Z,13.50
2018-11-04T09:18:56.676Z,13.60
2018-11-04T09:21:26.131Z,13.50
2018-11-04T09:23:56.285Z,13.60
2018-11-04T09:26:25.540Z,13.60
2018-11-04T09:28:54.860Z,13.60
2018-11-04T09:31:24.093Z,13.60
2018-11-04T09:33:53.940Z,13.60
2018-11-04T09:36:23.427Z,13.60
2018-11-04T09:38:52.541Z,13.60
2018-11-04T09:41:21.777Z,13.70
2018-11-04T09:43:51.324Z,13.70
2018-11-04T09:46:20.561Z,13.70
2018-11-04T09:48:49.777Z,13.70
2018-11-04T09:51:19.340Z,13.70
2018-11-04T09:53:48.812Z,13.70
2018-11-04T09:56:18.336Z,13.70
2018-11-04T09:58:47.569Z,13.70
2018-11-04T10:01:16.837Z,13.70
2018-11-04T10:03:46.125Z,13.80
2018-11-04T10:06:15.657Z,13.80
2018-11-04T10:08:44.909Z,13.80
2018-11-04T10:11:14.173Z,13.80
2018-11-04T10:13:43.877Z,13.90
2018-11-04T10:16:13.172Z,13.90
2018-11-04T10:18:42.575Z,13.90
2018-11-04T10:21:12.194Z,14.00
2018-11-04T10:23:41.135Z,14.00
2018-11-04T10:26:10.425Z,14.10
2018-11-04T10:28:39.927Z,14.20
2018-11-04T10:31:09.134Z,14.10
2018-11-04T10:33:38.365Z,14.10
2018-11-04T10:36:08.343Z,14.20
2018-11-04T10:38:37.577Z,14.20
2018-11-04T10:41:06.890Z,14.20
2018-11-04T10:43:36.141Z,14.20
2018-11-04T10:46:05.465Z,14.20
2018-11-04T10:48:34.713Z,14.20
2018-11-04T10:51:08.808Z,14.20
2018-11-04T10:53:38.379Z,14.20
2018-11-04T10:56:07.959Z,14.30
2018-11-04T10:58:37.243Z,14.30
2018-11-04T11:01:06.551Z,14.30
2018-11-04T11:03:36.317Z,14.30
2018-11-04T11:06:05.657Z,14.30
2018-11-04T11:08:35.132Z,14.30
2018-11-04T11:11:04.810Z,14.30
2018-11-04T11:13:34.611Z,14.40
2018-11-04T11:16:03.881Z,14.30
2018-11-04T11:18:33.138Z,14.30
2018-11-04T11:21:02.436Z,14.30
2018-11-04T11:23:31.734Z,14.30
2018-11-04T11:26:00.977Z,14.30
2018-11-04T11:28:30.269Z,14.30
2018-11-04T11:30:59.501Z,14.40
2018-11-04T11:33:28.948Z,14.30
2018-11-04T11:35:58.875Z,14.30
2018-11-04T11:38:28.121Z,14.30
2018-11-04T11:40:59.476Z,14.30
2018-11-04T11:43:28.749Z,14.40
2018-11-04T11:45:59.133Z,14.40
2018-11-04T11:48:29.756Z,14.40
2018-11-04T11:50:59.285Z,14.40
2018-11-04T11:53:28.560Z,14.40
2018-11-04T11:55:58.105Z,14.40
2018-11-04T11:58:27.366Z,14.40
2018-11-04T12:00:56.568Z,14.40
2018-11-04T12:03:26.097Z,14.40
2018-11-04T12:05:55.378Z,14.50
2018-11-04T12:08:24.682Z,14.50
2018-11-04T12:10:55.320Z,14.50
2018-11-04T12:13:24.834Z,14.50
2018-11-04T12:15:54.125Z,14.50
2018-11-04T12:18:23.554Z,14.50
2018-11-04T12:20:53.094Z,14.60
2018-11-04T12:23:22.434Z,14.50
2018-11-04T12:25:53.234Z,14.50
2018-11-04T12:28:22.756Z,14.60
2018-11-04T12:30:52.077Z,14.50
2018-11-04T12:33:21.481Z,14.60
2018-11-04T12:35:50.981Z,14.50
2018-11-04T12:38:20.681Z,14.50
2018-11-04T12:40:51.441Z,14.50
2018-11-04T12:43:20.798Z,14.50
2018-11-04T12:45:50.365Z,14.60
2018-11-04T12:48:19.627Z,14.60
2018-11-04T12:50:49.220Z,14.60
2018-11-04T12:53:18.545Z,14.60
2018-11-04T12:55:48.165Z,14.60
2018-11-04T12:58:17.798Z,14.60
2018-11-04T13:00:47.100Z,14.60
2018-11-04T13:03:16.521Z,14.50
2018-11-04T13:05:46.048Z,14.50
2018-11-04T13:08:15.608Z,14.50
2018-11-04T13:10:44.965Z,14.60
2018-11-04T13:13:14.497Z,14.60
2018-11-04T13:15:45.021Z,14.60
2018-11-04T13:18:14.649Z,14.60
2018-11-04T13:20:45.749Z,14.70
2018-11-04T13:23:16.643Z,14.70
2018-11-04T13:25:47.143Z,14.70
2018-11-04T13:28:17.375Z,14.70
2018-11-04T13:30:48.747Z,14.70
2018-11-04T13:33:19.125Z,14.70
2018-11-04T13:35:48.696Z,14.70
2018-11-04T13:38:18.573Z,14.70
2018-11-04T13:40:47.945Z,14.60
2018-11-04T13:43:17.674Z,14.70
2018-11-04T13:45:47.185Z,14.70
2018-11-04T13:48:17.031Z,14.60
2018-11-04T13:50:48.976Z,14.60
2018-11-04T13:53:18.461Z,14.50
2018-11-04T13:55:47.999Z,14.60
2018-11-04T13:58:18.497Z,14.60
2018-11-04T14:00:49.493Z,14.60
2018-11-04T14:03:19.943Z,14.60
2018-11-04T14:05:50.441Z,14.60
2018-11-04T14:08:20.749Z,14.60
2018-11-04T14:10:50.192Z,14.60
2018-11-04T14:13:19.670Z,14.50
2018-11-04T14:15:49.389Z,14.60
2018-11-04T14:18:19.035Z,14.50
2018-11-04T14:20:48.951Z,14.50
2018-11-04T14:23:18.636Z,14.50
2018-11-04T14:25:48.193Z,14.40
2018-11-04T14:28:17.553Z,14.40
2018-11-04T14:30:47.136Z,14.40
2018-11-04T14:33:23.181Z,14.40
2018-11-04T14:35:52.446Z,14.50
2018-11-04T14:38:22.380Z,14.50
2018-11-04T14:40:51.867Z,14.60
2018-11-04T14:43:23.421Z,14.60
2018-11-04T14:45:52.761Z,14.60
2018-11-04T14:48:22.139Z,14.60
2018-11-04T14:50:53.537Z,14.60
2018-11-04T14:53:23.105Z,14.60
2018-11-04T14:55:52.656Z,14.60
2018-11-04T14:58:22.091Z,14.50
2018-11-04T15:00:52.775Z,14.50
2018-11-04T15:03:22.376Z,14.40
2018-11-04T15:05:52.080Z,14.40
2018-11-04T15:08:21.395Z,14.40
2018-11-04T15:10:50.720Z,14.40
2018-11-04T15:13:21.396Z,14.40
2018-11-04T15:15:51.181Z,14.30
2018-11-04T15:18:20.721Z,14.30
2018-11-04T15:20:50.181Z,14.30
2018-11-04T15:23:19.709Z,14.30
2018-11-04T15:25:49.270Z,14.20
2018-11-04T15:28:18.869Z,14.20
2018-11-04T15:30:48.773Z,14.20
2018-11-04T15:33:19.298Z,14.20
2018-11-04T15:35:50.107Z,14.20
2018-11-04T15:38:19.503Z,14.10
2018-11-04T15:40:49.048Z,14.20
2018-11-04T15:43:19.756Z,14.20
2018-11-04T15:45:49.155Z,14.20
2018-11-04T15:48:18.465Z,14.20
2018-11-04T15:50:47.796Z,14.10
2018-11-04T15:53:18.301Z,14.10
2018-11-04T15:55:49.817Z,14.10
2018-11-04T15:58:20.301Z,14.10
2018-11-04T16:00:49.909Z,14.10
2018-11-04T16:03:20.662Z,14.10
2018-11-04T16:05:52.198Z,14.00
2018-11-04T16:08:21.506Z,14.00
2018-11-04T16:10:50.771Z,14.00
2018-11-04T16:13:24.204Z,14.00
2018-11-04T16:15:53.698Z,14.00
2018-11-04T16:18:23.102Z,14.00
2018-11-04T16:20:52.802Z,14.00
2018-11-04T16:23:22.216Z,14.00
2018-11-04T16:25:52.761Z,13.90
2018-11-04T16:28:22.413Z,13.90
2018-11-04T16:30:51.953Z,13.90
2018-11-04T16:33:21.337Z,13.90
2018-11-04T16:35:50.645Z,13.90
2018-11-04T16:38:20.258Z,13.90
2018-11-04T16:40:49.761Z,14.00
2018-11-04T16:43:19.348Z,14.00
2018-11-04T16:45:48.941Z,14.00
2018-11-04T16:48:18.272Z,14.00
2018-11-04T16:50:47.625Z,14.10
2018-11-04T16:53:17.531Z,14.10
2018-11-04T16:55:48.064Z,14.10
2018-11-04T16:58:17.599Z,14.20
2018-11-04T17:00:46.949Z,14.10
2018-11-04T17:03:17.809Z,14.00
2018-11-04T17:05:47.403Z,13.90
2018-11-04T17:08:17.952Z,13.90
2018-11-04T17:10:47.593Z,14.00
2018-11-04T17:13:18.067Z,14.10
2018-11-04T17:15:48.939Z,14.00
2018-11-04T17:18:19.000Z,14.00
2018-11-04T17:20:52.689Z,14.00
2018-11-04T17:23:22.046Z,14.00
2018-11-04T17:25:51.378Z,14.00
2018-11-04T17:28:20.941Z,14.00
2018-11-04T17:30:51.425Z,14.00
2018-11-04T17:33:20.877Z,14.00
2018-11-04T17:35:52.277Z,13.90
2018-11-04T17:38:22.757Z,13.90
2018-11-04T17:40:52.106Z,13.90
2018-11-04T17:43:21.869Z,14.00
2018-11-04T17:45:52.510Z,14.00
2018-11-04T17:48:22.104Z,14.00
2018-11-04T17:50:51.730Z,14.00
2018-11-04T17:53:21.620Z,14.00
2018-11-04T17:55:50.933Z,14.00
2018-11-04T17:58:21.457Z,14.00
2018-11-04T18:00:50.947Z,14.00
2018-11-04T18:03:20.321Z,14.00
2018-11-04T18:05:49.784Z,14.00
2018-11-04T18:08:19.326Z,13.90
2018-11-04T18:10:48.513Z,14.00
2018-11-04T18:13:17.866Z,13.90
2018-11-04T18:15:48.361Z,13.90
2018-11-04T18:18:17.772Z,13.90
2018-11-04T18:20:47.041Z,13.90
2018-11-04T18:23:16.603Z,13.90
2018-11-04T18:25:45.873Z,13.90
2018-11-04T18:28:16.005Z,13.90
2018-11-04T18:30:45.398Z,13.90
2018-11-04T18:33:14.633Z,14.00
2018-11-04T18:35:44.040Z,14.00
2018-11-04T18:38:13.565Z,14.00
2018-11-04T18:40:43.584Z,13.90
2018-11-04T18:43:12.905Z,14.00
2018-11-04T18:45:42.237Z,14.00
2018-11-04T18:48:11.524Z,14.00
2018-11-04T18:50:40.983Z,14.00
2018-11-04T18:53:10.103Z,14.00
2018-11-04T18:55:39.371Z,14.00
2018-11-04T18:58:08.618Z,13.90
2018-11-04T19:00:37.865Z,13.90
2018-11-04T19:03:07.265Z,14.00
2018-11-04T19:05:36.652Z,13.90
2018-11-04T19:08:06.483Z,13.90
2018-11-04T19:10:35.766Z,13.90
2018-11-04T19:13:05.608Z,13.90
2018-11-04T19:15:34.969Z,13.90
2018-11-04T19:18:04.288Z,13.90
2018-11-04T19:20:34.005Z,14.00
2018-11-04T19:23:03.674Z,13.90
2018-11-04T19:25:32.975Z,13.90
2018-11-04T19:28:02.633Z,13.90
2018-11-04T19:30:32.005Z,13.90
2018-11-04T19:33:01.286Z,13.90
2018-11-04T19:35:30.666Z,13.90
2018-11-04T19:37:59.896Z,13.90
2018-11-04T19:40:29.248Z,14.00
2018-11-04T19:42:58.528Z,13.90
2018-11-04T19:45:27.826Z,13.90
2018-11-04T19:47:57.348Z,13.90
2018-11-04T19:50:26.764Z,13.90
2018-11-04T19:52:56.392Z,13.90
2018-11-04T19:55:25.936Z,13.90
2018-11-04T19:57:55.765Z,14.00
2018-11-04T20:00:25.158Z,13.90
2018-11-04T20:02:54.445Z,14.00
2018-11-04T20:05:24.144Z,14.00
2018-11-04T20:07:54.674Z,14.00
2018-11-04T20:10:24.265Z,14.00
2018-11-04T20:12:58.964Z,14.00
2018-11-04T20:15:28.372Z,14.00
2018-11-04T20:17:57.604Z,14.00
2018-11-04T20:20:27.682Z,14.10
2018-11-04T20:22:56.984Z,14.10
2018-11-04T20:26:28.701Z,14.00
2018-11-04T20:28:58.169Z,14.00
2018-11-04T20:31:32.720Z,14.00
2018-11-04T20:34:02.453Z,14.00
2018-11-04T20:36:31.887Z,13.90
2018-11-04T20:39:08.609Z,13.90
2018-11-04T20:41:37.969Z,14.00
2018-11-04T20:44:07.237Z,13.90
2018-11-04T20:46:37.085Z,13.90
2018-11-04T20:49:11.574Z,13.90
2018-11-04T20:51:40.961Z,13.90
2018-11-04T20:54:13.371Z,14.00
2018-11-04T20:56:48.184Z,14.00
2018-11-04T20:59:18.602Z,14.00
2018-11-04T21:01:49.231Z,14.00
2018-11-04T21:04:18.406Z,14.00
2018-11-04T21:06:47.678Z,14.00
2018-11-04T21:09:17.128Z,14.00
2018-11-04T21:11:46.865Z,14.00
2018-11-04T21:14:16.145Z,14.00
2018-11-04T21:16:45.695Z,13.90
2018-11-04T21:19:15.157Z,13.90
2018-11-04T21:21:44.480Z,13.90
2018-11-04T21:24:14.084Z,13.90
2018-11-04T21:26:43.322Z,13.90
2018-11-04T21:29:12.729Z,13.90
2018-11-04T21:31:42.150Z,13.90
2018-11-04T21:34:11.408Z,13.90
2018-11-04T21:36:40.775Z,13.90
2018-11-04T21:39:11.015Z,14.00
2018-11-04T21:41:40.308Z,14.00
2018-11-04T21:44:10.213Z,14.00
2018-11-04T21:46:39.326Z,14.00
2018-11-04T21:49:08.554Z,14.10
2018-11-04T21:51:37.809Z,14.10
2018-11-04T21:54:07.140Z,14.10
2018-11-04T21:56:36.643Z,14.10
2018-11-04T21:59:05.961Z,14.10
2018-11-04T22:01:35.230Z,14.10
2018-11-04T22:04:04.662Z,14.00
2018-11-04T22:06:33.801Z,14.00
2018-11-04T22:09:03.207Z,14.10
2018-11-04T22:11:32.457Z,14.10
2018-11-04T22:14:01.900Z,14.10
2018-11-04T22:16:31.125Z,14.10
2018-11-04T22:19:00.370Z,14.10
2018-11-04T22:21:29.604Z,14.10
2018-11-04T22:23:58.863Z,14.00
2018-11-04T22:26:28.132Z,14.00
2018-11-04T22:28:57.376Z,14.00
2018-11-04T22:31:26.881Z,14.00
2018-11-04T22:33:56.109Z,14.00
2018-11-04T22:36:25.397Z,14.00
2018-11-04T22:38:55.169Z,14.00
2018-11-04T22:41:24.403Z,14.00
2018-11-04T22:43:53.628Z,14.00
2018-11-04T22:46:23.154Z,14.00
2018-11-04T22:48:52.422Z,14.00
2018-11-04T22:51:21.741Z,14.10
2018-11-04T22:53:51.017Z,14.10
2018-11-04T22:56:20.421Z,14.10
2018-11-04T22:58:49.669Z,14.00
2018-11-04T23:01:19.021Z,14.00
2018-11-04T23:03:48.209Z,14.10
2018-11-04T23:06:17.452Z,14.00
2018-11-04T23:08:46.793Z,14.00
2018-11-04T23:11:15.989Z,14.10
2018-11-04T23:13:45.673Z,14.10
2018-11-04T23:16:14.933Z,14.10
2018-11-04T23:18:44.279Z,14.10
2018-11-04T23:21:13.413Z,14.10
2018-11-04T23:23:42.953Z,14.10
2018-11-04T23:26:12.199Z,14.10
2018-11-04T23:28:41.449Z,14.10
2018-11-04T23:31:10.697Z,14.10
2018-11-04T23:33:39.933Z,14.10
2018-11-04T23:36:09.485Z,14.20
2018-11-04T23:38:38.769Z,14.10
2018-11-04T23:41:08.030Z,14.10
2018-11-04T23:43:37.304Z,14.10
2018-11-04T23:46:07.512Z,14.10
2018-11-04T23:48:37.031Z,14.10
2018-11-04T23:51:06.393Z,14.10
2018-11-04T23:53:35.674Z,14.10
2018-11-04T23:56:05.293Z,14.10
2018-11-04T23:58:34.666Z,14.10
